sensor_id;sensor_type;location;lat;lon;timestamp;temperature;humidity
40253;DHT22;25972;51.854;4.534;2023-11-19T00:01:12;13.40;99.90
40253;DHT22;25972;51.854;4.534;2023-11-19T00:03:38;13.40;99.90
40253;DHT22;25972;51.854;4.534;2023-11-19T00:06:07;13.40;99.90
40253;DHT22;25972;51.854;4.534;2023-11-19T00:08:35;13.30;99.90
40253;DHT22;25972;51.854;4.534;2023-11-19T00:11:01;13.30;99.90
40253;DHT22;25972;51.854;4.534;2023-11-19T00:13:28;13.40;99.90
40253;DHT22;25972;51.854;4.534;2023-11-19T00:15:54;13.40;99.90
40253;DHT22;25972;51.854;4.534;2023-11-19T00:18:20;13.30;99.90
40253;DHT22;25972;51.854;4.534;2023-11-19T00:20:46;13.30;99.90
40253;DHT22;25972;51.854;4.534;2023-11-19T00:23:14;13.30;99.90
40253;DHT22;25972;51.854;4.534;2023-11-19T00:25:40;13.30;99.90
40253;DHT22;25972;51.854;4.534;2023-11-19T00:28:06;13.30;99.90
40253;DHT22;25972;51.854;4.534;2023-11-19T00:30:32;13.40;99.90
40253;DHT22;25972;51.854;4.534;2023-11-19T00:32:58;13.30;99.90
40253;DHT22;25972;51.854;4.534;2023-11-19T00:35:24;13.30;99.90
40253;DHT22;25972;51.854;4.534;2023-11-19T00:37:50;13.30;99.90
40253;DHT22;25972;51.854;4.534;2023-11-19T00:40:18;13.30;99.90
40253;DHT22;25972;51.854;4.534;2023-11-19T00:42:47;13.30;99.90
40253;DHT22;25972;51.854;4.534;2023-11-19T00:45:13;13.20;99.90
40253;DHT22;25972;51.854;4.534;2023-11-19T00:47:40;13.20;99.90
40253;DHT22;25972;51.854;4.534;2023-11-19T00:50:07;13.20;99.90
40253;DHT22;25972;51.854;4.534;2023-11-19T00:52:35;13.20;99.90
40253;DHT22;25972;51.854;4.534;2023-11-19T00:55:03;13.20;99.90
40253;DHT22;25972;51.854;4.534;2023-11-19T00:57:31;13.10;99.90
40253;DHT22;25972;51.854;4.534;2023-11-19T01:00:01;13.10;99.90
40253;DHT22;25972;51.854;4.534;2023-11-19T01:02:28;13.10;99.90
40253;DHT22;25972;51.854;4.534;2023-11-19T01:04:56;13.10;99.90
40253;DHT22;25972;51.854;4.534;2023-11-19T01:07:22;13.00;99.90
40253;DHT22;25972;51.854;4.534;2023-11-19T01:09:51;13.00;99.90
40253;DHT22;25972;51.854;4.534;2023-11-19T01:12:17;12.90;99.90
40253;DHT22;25972;51.854;4.534;2023-11-19T01:14:44;13.00;99.90
40253;DHT22;25972;51.854;4.534;2023-11-19T01:17:10;12.90;99.90
40253;DHT22;25972;51.854;4.534;2023-11-19T01:19:36;12.90;99.90
40253;DHT22;25972;51.854;4.534;2023-11-19T01:22:02;12.80;99.90
40253;DHT22;25972;51.854;4.534;2023-11-19T01:24:28;12.80;99.90
40253;DHT22;25972;51.854;4.534;2023-11-19T01:26:56;12.70;99.90
40253;DHT22;25972;51.854;4.534;2023-11-19T01:29:23;12.70;99.90
40253;DHT22;25972;51.854;4.534;2023-11-19T01:31:51;12.70;99.90
40253;DHT22;25972;51.854;4.534;2023-11-19T01:34:17;12.70;99.90
40253;DHT22;25972;51.854;4.534;2023-11-19T01:36:43;12.70;99.90
40253;DHT22;25972;51.854;4.534;2023-11-19T01:39:09;12.60;99.90
40253;DHT22;25972;51.854;4.534;2023-11-19T01:41:35;12.50;99.90
40253;DHT22;25972;51.854;4.534;2023-11-19T01:44:02;12.50;99.90
40253;DHT22;25972;51.854;4.534;2023-11-19T01:46:28;12.50;99.90
40253;DHT22;25972;51.854;4.534;2023-11-19T01:48:56;12.50;99.90
40253;DHT22;25972;51.854;4.534;2023-11-19T01:51:22;12.40;99.90
40253;DHT22;25972;51.854;4.534;2023-11-19T01:53:49;12.40;99.90
40253;DHT22;25972;51.854;4.534;2023-11-19T01:56:15;12.30;99.90
40253;DHT22;25972;51.854;4.534;2023-11-19T01:58:42;12.30;99.90
40253;DHT22;25972;51.854;4.534;2023-11-19T02:01:10;12.30;99.90
40253;DHT22;25972;51.854;4.534;2023-11-19T02:03:37;12.30;99.90
40253;DHT22;25972;51.854;4.534;2023-11-19T02:06:06;12.20;99.90
40253;DHT22;25972;51.854;4.534;2023-11-19T02:08:33;12.30;99.90
40253;DHT22;25972;51.854;4.534;2023-11-19T02:10:59;12.20;99.90
40253;DHT22;25972;51.854;4.534;2023-11-19T02:13:26;12.20;99.90
40253;DHT22;25972;51.854;4.534;2023-11-19T02:15:52;12.20;99.90
40253;DHT22;25972;51.854;4.534;2023-11-19T02:18:19;12.10;99.90
40253;DHT22;25972;51.854;4.534;2023-11-19T02:20:45;12.10;99.90
40253;DHT22;25972;51.854;4.534;2023-11-19T02:23:13;12.10;99.90
40253;DHT22;25972;51.854;4.534;2023-11-19T02:25:40;12.10;99.90
40253;DHT22;25972;51.854;4.534;2023-11-19T02:28:08;12.00;99.90
40253;DHT22;25972;51.854;4.534;2023-11-19T02:30:37;12.00;99.90
40253;DHT22;25972;51.854;4.534;2023-11-19T02:33:04;12.00;99.90
40253;DHT22;25972;51.854;4.534;2023-11-19T02:35:32;12.00;99.90
40253;DHT22;25972;51.854;4.534;2023-11-19T02:37:59;12.00;99.90
40253;DHT22;25972;51.854;4.534;2023-11-19T02:40:26;11.90;99.90
40253;DHT22;25972;51.854;4.534;2023-11-19T02:42:52;11.90;99.90
40253;DHT22;25972;51.854;4.534;2023-11-19T02:45:19;11.90;99.90
40253;DHT22;25972;51.854;4.534;2023-11-19T02:47:47;11.90;99.90
40253;DHT22;25972;51.854;4.534;2023-11-19T02:50:13;11.90;99.90
40253;DHT22;25972;51.854;4.534;2023-11-19T02:52:40;11.90;99.90
40253;DHT22;25972;51.854;4.534;2023-11-19T02:55:07;11.80;99.90
40253;DHT22;25972;51.854;4.534;2023-11-19T02:57:35;11.90;99.90
40253;DHT22;25972;51.854;4.534;2023-11-19T03:00:02;11.80;99.90
40253;DHT22;25972;51.854;4.534;2023-11-19T03:02:40;11.80;99.90
40253;DHT22;25972;51.854;4.534;2023-11-19T03:05:10;11.80;99.90
40253;DHT22;25972;51.854;4.534;2023-11-19T03:07:37;11.80;99.90
40253;DHT22;25972;51.854;4.534;2023-11-19T03:10:03;11.70;99.90
40253;DHT22;25972;51.854;4.534;2023-11-19T03:12:31;11.70;99.90
40253;DHT22;25972;51.854;4.534;2023-11-19T03:14:57;11.70;99.90
40253;DHT22;25972;51.854;4.534;2023-11-19T03:17:23;11.70;99.90
40253;DHT22;25972;51.854;4.534;2023-11-19T03:19:51;11.70;99.90
40253;DHT22;25972;51.854;4.534;2023-11-19T03:22:17;11.60;99.90
40253;DHT22;25972;51.854;4.534;2023-11-19T03:24:43;11.60;99.90
40253;DHT22;25972;51.854;4.534;2023-11-19T03:27:09;11.60;99.90
40253;DHT22;25972;51.854;4.534;2023-11-19T03:29:35;11.60;99.90
40253;DHT22;25972;51.854;4.534;2023-11-19T03:32:02;11.60;99.90
40253;DHT22;25972;51.854;4.534;2023-11-19T03:34:28;11.60;99.90
40253;DHT22;25972;51.854;4.534;2023-11-19T03:36:56;11.60;99.90
40253;DHT22;25972;51.854;4.534;2023-11-19T03:39:22;11.50;99.90
40253;DHT22;25972;51.854;4.534;2023-11-19T03:41:50;11.50;99.90
40253;DHT22;25972;51.854;4.534;2023-11-19T03:44:16;11.50;99.90
40253;DHT22;25972;51.854;4.534;2023-11-19T03:46:43;11.50;99.90
40253;DHT22;25972;51.854;4.534;2023-11-19T03:49:09;11.50;99.90
40253;DHT22;25972;51.854;4.534;2023-11-19T03:51:35;11.40;99.90
40253;DHT22;25972;51.854;4.534;2023-11-19T03:54:03;11.50;99.90
40253;DHT22;25972;51.854;4.534;2023-11-19T03:56:29;11.40;99.90
40253;DHT22;25972;51.854;4.534;2023-11-19T03:58:57;11.40;99.90
40253;DHT22;25972;51.854;4.534;2023-11-19T04:01:23;11.40;99.90
40253;DHT22;25972;51.854;4.534;2023-11-19T04:03:48;11.40;99.90
40253;DHT22;25972;51.854;4.534;2023-11-19T04:06:14;11.30;99.90
40253;DHT22;25972;51.854;4.534;2023-11-19T04:08:41;11.30;99.90
40253;DHT22;25972;51.854;4.534;2023-11-19T04:11:08;11.30;99.90
40253;DHT22;25972;51.854;4.534;2023-11-19T04:13:34;11.30;99.90
40253;DHT22;25972;51.854;4.534;2023-11-19T04:16:00;11.30;99.90
40253;DHT22;25972;51.854;4.534;2023-11-19T04:18:27;11.20;99.90
40253;DHT22;25972;51.854;4.534;2023-11-19T04:20:53;11.30;99.90
40253;DHT22;25972;51.854;4.534;2023-11-19T04:23:19;11.30;99.90
40253;DHT22;25972;51.854;4.534;2023-11-19T04:25:45;11.30;99.90
40253;DHT22;25972;51.854;4.534;2023-11-19T04:28:13;11.20;99.90
40253;DHT22;25972;51.854;4.534;2023-11-19T04:30:40;11.30;99.90
40253;DHT22;25972;51.854;4.534;2023-11-19T04:33:06;11.30;99.90
40253;DHT22;25972;51.854;4.534;2023-11-19T04:35:32;11.30;99.90
40253;DHT22;25972;51.854;4.534;2023-11-19T04:37:58;11.30;99.90
40253;DHT22;25972;51.854;4.534;2023-11-19T04:40:25;11.30;99.90
40253;DHT22;25972;51.854;4.534;2023-11-19T04:42:51;11.30;99.90
40253;DHT22;25972;51.854;4.534;2023-11-19T04:45:18;11.30;99.90
40253;DHT22;25972;51.854;4.534;2023-11-19T04:47:44;11.30;99.90
40253;DHT22;25972;51.854;4.534;2023-11-19T04:50:10;11.30;99.90
40253;DHT22;25972;51.854;4.534;2023-11-19T04:52:37;11.30;99.90
40253;DHT22;25972;51.854;4.534;2023-11-19T04:55:04;11.30;99.90
40253;DHT22;25972;51.854;4.534;2023-11-19T04:57:30;11.30;99.90
40253;DHT22;25972;51.854;4.534;2023-11-19T04:59:56;11.30;99.90
40253;DHT22;25972;51.854;4.534;2023-11-19T05:02:24;11.30;99.90
40253;DHT22;25972;51.854;4.534;2023-11-19T05:04:50;11.30;99.90
40253;DHT22;25972;51.854;4.534;2023-11-19T05:07:17;11.30;99.90
40253;DHT22;25972;51.854;4.534;2023-11-19T05:09:43;11.30;99.90
40253;DHT22;25972;51.854;4.534;2023-11-19T05:12:09;11.30;99.90
40253;DHT22;25972;51.854;4.534;2023-11-19T05:14:38;11.30;99.90
40253;DHT22;25972;51.854;4.534;2023-11-19T05:17:04;11.30;99.90
40253;DHT22;25972;51.854;4.534;2023-11-19T05:19:31;11.30;99.90
40253;DHT22;25972;51.854;4.534;2023-11-19T05:21:57;11.30;99.90
40253;DHT22;25972;51.854;4.534;2023-11-19T05:24:23;11.30;99.90
40253;DHT22;25972;51.854;4.534;2023-11-19T05:26:49;11.30;99.90
40253;DHT22;25972;51.854;4.534;2023-11-19T05:29:16;11.30;99.90
40253;DHT22;25972;51.854;4.534;2023-11-19T05:31:42;11.30;99.90
40253;DHT22;25972;51.854;4.534;2023-11-19T05:34:08;11.30;99.90
40253;DHT22;25972;51.854;4.534;2023-11-19T05:36:36;11.30;99.90
40253;DHT22;25972;51.854;4.534;2023-11-19T05:39:02;11.30;99.90
40253;DHT22;25972;51.854;4.534;2023-11-19T05:41:30;11.30;99.90
40253;DHT22;25972;51.854;4.534;2023-11-19T05:43:56;11.30;99.90
40253;DHT22;25972;51.854;4.534;2023-11-19T05:46:22;11.30;99.90
40253;DHT22;25972;51.854;4.534;2023-11-19T05:48:48;11.30;99.90
40253;DHT22;25972;51.854;4.534;2023-11-19T05:51:14;11.30;99.90
40253;DHT22;25972;51.854;4.534;2023-11-19T05:53:44;11.20;99.90
40253;DHT22;25972;51.854;4.534;2023-11-19T05:56:16;11.20;99.90
40253;DHT22;25972;51.854;4.534;2023-11-19T05:58:47;11.20;99.90
40253;DHT22;25972;51.854;4.534;2023-11-19T06:01:14;11.20;99.90
40253;DHT22;25972;51.854;4.534;2023-11-19T06:03:41;11.20;99.90
40253;DHT22;25972;51.854;4.534;2023-11-19T06:06:09;11.20;99.90
40253;DHT22;25972;51.854;4.534;2023-11-19T06:08:35;11.20;99.90
40253;DHT22;25972;51.854;4.534;2023-11-19T06:11:03;11.20;99.90
40253;DHT22;25972;51.854;4.534;2023-11-19T06:13:29;11.20;99.90
40253;DHT22;25972;51.854;4.534;2023-11-19T06:15:56;11.10;99.90
40253;DHT22;25972;51.854;4.534;2023-11-19T06:18:22;11.10;99.90
40253;DHT22;25972;51.854;4.534;2023-11-19T06:20:49;11.10;99.90
40253;DHT22;25972;51.854;4.534;2023-11-19T06:23:15;11.10;99.90
40253;DHT22;25972;51.854;4.534;2023-11-19T06:25:41;11.10;99.90
40253;DHT22;25972;51.854;4.534;2023-11-19T06:28:09;11.10;99.90
40253;DHT22;25972;51.854;4.534;2023-11-19T06:30:35;11.10;99.90
40253;DHT22;25972;51.854;4.534;2023-11-19T06:33:02;11.00;99.90
40253;DHT22;25972;51.854;4.534;2023-11-19T06:35:29;11.10;99.90
40253;DHT22;25972;51.854;4.534;2023-11-19T06:38:01;11.00;99.90
40253;DHT22;25972;51.854;4.534;2023-11-19T06:40:28;11.00;99.90
40253;DHT22;25972;51.854;4.534;2023-11-19T06:42:55;11.10;99.90
40253;DHT22;25972;51.854;4.534;2023-11-19T06:45:22;11.10;99.90
40253;DHT22;25972;51.854;4.534;2023-11-19T06:47:48;11.10;99.90
40253;DHT22;25972;51.854;4.534;2023-11-19T06:50:14;11.10;99.90
40253;DHT22;25972;51.854;4.534;2023-11-19T06:52:40;11.10;99.90
40253;DHT22;25972;51.854;4.534;2023-11-19T06:55:07;11.10;99.90
40253;DHT22;25972;51.854;4.534;2023-11-19T06:57:33;11.10;99.90
40253;DHT22;25972;51.854;4.534;2023-11-19T06:59:59;11.10;99.90
40253;DHT22;25972;51.854;4.534;2023-11-19T07:02:28;11.10;99.90
40253;DHT22;25972;51.854;4.534;2023-11-19T07:04:54;11.10;99.90
40253;DHT22;25972;51.854;4.534;2023-11-19T07:07:20;11.10;99.90
40253;DHT22;25972;51.854;4.534;2023-11-19T07:09:46;11.20;99.90
40253;DHT22;25972;51.854;4.534;2023-11-19T07:12:14;11.20;99.90
40253;DHT22;25972;51.854;4.534;2023-11-19T07:14:40;11.20;99.90
40253;DHT22;25972;51.854;4.534;2023-11-19T07:17:07;11.20;99.90
40253;DHT22;25972;51.854;4.534;2023-11-19T07:19:38;11.20;99.90
40253;DHT22;25972;51.854;4.534;2023-11-19T07:22:04;11.10;99.90
40253;DHT22;25972;51.854;4.534;2023-11-19T07:24:31;11.20;99.90
40253;DHT22;25972;51.854;4.534;2023-11-19T07:26:57;11.10;99.90
40253;DHT22;25972;51.854;4.534;2023-11-19T07:29:23;11.10;99.90
40253;DHT22;25972;51.854;4.534;2023-11-19T07:31:49;11.00;99.90
40253;DHT22;25972;51.854;4.534;2023-11-19T07:34:15;11.10;99.90
40253;DHT22;25972;51.854;4.534;2023-11-19T07:36:43;11.10;99.90
40253;DHT22;25972;51.854;4.534;2023-11-19T07:39:09;11.00;99.90
40253;DHT22;25972;51.854;4.534;2023-11-19T07:41:36;11.10;99.90
40253;DHT22;25972;51.854;4.534;2023-11-19T07:44:05;11.10;99.90
40253;DHT22;25972;51.854;4.534;2023-11-19T07:46:32;11.10;99.90
40253;DHT22;25972;51.854;4.534;2023-11-19T07:48:58;11.10;99.90
40253;DHT22;25972;51.854;4.534;2023-11-19T07:51:24;11.20;99.90
40253;DHT22;25972;51.854;4.534;2023-11-19T07:53:52;11.20;99.90
40253;DHT22;25972;51.854;4.534;2023-11-19T07:56:18;11.20;99.90
40253;DHT22;25972;51.854;4.534;2023-11-19T07:58:44;11.20;99.90
40253;DHT22;25972;51.854;4.534;2023-11-19T08:01:10;11.30;99.90
40253;DHT22;25972;51.854;4.534;2023-11-19T08:03:36;11.30;99.90
40253;DHT22;25972;51.854;4.534;2023-11-19T08:06:03;11.30;99.90
40253;DHT22;25972;51.854;4.534;2023-11-19T08:08:30;11.30;99.90
40253;DHT22;25972;51.854;4.534;2023-11-19T08:11:00;11.30;99.90
40253;DHT22;25972;51.854;4.534;2023-11-19T08:13:26;11.30;99.90
40253;DHT22;25972;51.854;4.534;2023-11-19T08:15:52;11.40;99.90
40253;DHT22;25972;51.854;4.534;2023-11-19T08:18:18;11.40;99.90
40253;DHT22;25972;51.854;4.534;2023-11-19T08:20:45;11.40;99.90
40253;DHT22;25972;51.854;4.534;2023-11-19T08:23:11;11.50;99.90
40253;DHT22;25972;51.854;4.534;2023-11-19T08:25:37;11.50;99.90
40253;DHT22;25972;51.854;4.534;2023-11-19T08:28:05;11.50;99.90
40253;DHT22;25972;51.854;4.534;2023-11-19T08:30:31;11.60;99.90
40253;DHT22;25972;51.854;4.534;2023-11-19T08:32:57;11.60;99.90
40253;DHT22;25972;51.854;4.534;2023-11-19T08:35:24;11.60;99.90
40253;DHT22;25972;51.854;4.534;2023-11-19T08:37:50;11.60;99.90
40253;DHT22;25972;51.854;4.534;2023-11-19T08:40:17;11.60;99.90
40253;DHT22;25972;51.854;4.534;2023-11-19T08:42:44;11.60;99.90
40253;DHT22;25972;51.854;4.534;2023-11-19T08:45:11;11.60;99.90
40253;DHT22;25972;51.854;4.534;2023-11-19T08:47:37;11.70;99.90
40253;DHT22;25972;51.854;4.534;2023-11-19T08:50:04;11.90;99.90
40253;DHT22;25972;51.854;4.534;2023-11-19T08:52:30;12.00;99.90
40253;DHT22;25972;51.854;4.534;2023-11-19T08:54:57;12.00;99.90
40253;DHT22;25972;51.854;4.534;2023-11-19T08:57:23;12.00;99.90
40253;DHT22;25972;51.854;4.534;2023-11-19T08:59:49;12.00;99.90
40253;DHT22;25972;51.854;4.534;2023-11-19T09:02:16;12.00;99.90
40253;DHT22;25972;51.854;4.534;2023-11-19T09:04:42;12.00;99.90
40253;DHT22;25972;51.854;4.534;2023-11-19T09:07:08;12.10;99.90
40253;DHT22;25972;51.854;4.534;2023-11-19T09:09:38;12.20;99.90
40253;DHT22;25972;51.854;4.534;2023-11-19T09:12:04;12.30;99.90
40253;DHT22;25972;51.854;4.534;2023-11-19T09:14:30;12.20;99.90
40253;DHT22;25972;51.854;4.534;2023-11-19T09:16:57;12.20;99.90
40253;DHT22;25972;51.854;4.534;2023-11-19T09:19:25;12.20;99.90
40253;DHT22;25972;51.854;4.534;2023-11-19T09:21:52;12.10;99.90
40253;DHT22;25972;51.854;4.534;2023-11-19T09:24:19;12.10;99.90
40253;DHT22;25972;51.854;4.534;2023-11-19T09:26:45;12.10;99.90
40253;DHT22;25972;51.854;4.534;2023-11-19T09:29:12;12.10;99.90
40253;DHT22;25972;51.854;4.534;2023-11-19T09:31:40;12.10;99.90
40253;DHT22;25972;51.854;4.534;2023-11-19T09:34:06;12.10;99.90
40253;DHT22;25972;51.854;4.534;2023-11-19T09:36:34;12.20;99.90
40253;DHT22;25972;51.854;4.534;2023-11-19T09:39:00;12.30;99.90
40253;DHT22;25972;51.854;4.534;2023-11-19T09:41:27;12.40;99.90
40253;DHT22;25972;51.854;4.534;2023-11-19T09:43:55;12.50;99.90
40253;DHT22;25972;51.854;4.534;2023-11-19T09:46:21;12.60;99.90
40253;DHT22;25972;51.854;4.534;2023-11-19T09:48:52;12.70;99.90
40253;DHT22;25972;51.854;4.534;2023-11-19T09:51:20;12.70;99.90
40253;DHT22;25972;51.854;4.534;2023-11-19T09:53:49;12.70;99.90
40253;DHT22;25972;51.854;4.534;2023-11-19T09:56:15;12.70;99.90
40253;DHT22;25972;51.854;4.534;2023-11-19T09:58:42;12.70;99.90
40253;DHT22;25972;51.854;4.534;2023-11-19T10:01:09;12.80;99.90
40253;DHT22;25972;51.854;4.534;2023-11-19T10:03:38;12.80;99.90
40253;DHT22;25972;51.854;4.534;2023-11-19T10:06:07;12.90;99.90
40253;DHT22;25972;51.854;4.534;2023-11-19T10:08:33;13.00;99.90
40253;DHT22;25972;51.854;4.534;2023-11-19T10:11:01;13.10;99.90
40253;DHT22;25972;51.854;4.534;2023-11-19T10:13:27;13.40;99.90
40253;DHT22;25972;51.854;4.534;2023-11-19T10:15:55;13.60;99.90
40253;DHT22;25972;51.854;4.534;2023-11-19T10:18:25;13.80;99.90
40253;DHT22;25972;51.854;4.534;2023-11-19T10:20:51;13.90;99.90
40253;DHT22;25972;51.854;4.534;2023-11-19T10:23:18;14.10;99.90
40253;DHT22;25972;51.854;4.534;2023-11-19T10:25:44;14.10;99.90
40253;DHT22;25972;51.854;4.534;2023-11-19T10:28:11;14.20;99.90
40253;DHT22;25972;51.854;4.534;2023-11-19T10:30:37;14.20;99.90
40253;DHT22;25972;51.854;4.534;2023-11-19T10:33:04;14.00;99.90
40253;DHT22;25972;51.854;4.534;2023-11-19T10:35:32;13.80;99.90
40253;DHT22;25972;51.854;4.534;2023-11-19T10:37:59;13.60;99.90
40253;DHT22;25972;51.854;4.534;2023-11-19T10:40:37;13.50;99.90
40253;DHT22;25972;51.854;4.534;2023-11-19T10:43:05;13.40;99.90
40253;DHT22;25972;51.854;4.534;2023-11-19T10:45:34;13.30;99.90
40253;DHT22;25972;51.854;4.534;2023-11-19T10:48:02;13.20;99.90
40253;DHT22;25972;51.854;4.534;2023-11-19T10:50:32;13.20;99.90
40253;DHT22;25972;51.854;4.534;2023-11-19T10:52:58;13.10;99.90
40253;DHT22;25972;51.854;4.534;2023-11-19T10:55:27;13.10;99.90
40253;DHT22;25972;51.854;4.534;2023-11-19T10:57:59;13.20;99.90
40253;DHT22;25972;51.854;4.534;2023-11-19T11:00:25;13.20;99.90
40253;DHT22;25972;51.854;4.534;2023-11-19T11:02:56;13.20;99.90
40253;DHT22;25972;51.854;4.534;2023-11-19T11:05:26;13.20;99.90
40253;DHT22;25972;51.854;4.534;2023-11-19T11:07:54;13.20;99.90
40253;DHT22;25972;51.854;4.534;2023-11-19T11:10:22;13.20;99.90
40253;DHT22;25972;51.854;4.534;2023-11-19T11:12:52;13.40;99.90
40253;DHT22;25972;51.854;4.534;2023-11-19T11:15:27;13.50;99.90
40253;DHT22;25972;51.854;4.534;2023-11-19T11:18:00;13.60;99.90
40253;DHT22;25972;51.854;4.534;2023-11-19T11:20:29;13.70;99.90
40253;DHT22;25972;51.854;4.534;2023-11-19T11:23:21;13.70;99.90
40253;DHT22;25972;51.854;4.534;2023-11-19T11:26:00;13.80;99.90
40253;DHT22;25972;51.854;4.534;2023-11-19T11:28:37;13.90;99.90
40253;DHT22;25972;51.854;4.534;2023-11-19T11:31:34;14.00;99.90
40253;DHT22;25972;51.854;4.534;2023-11-19T11:34:24;14.10;99.90
40253;DHT22;25972;51.854;4.534;2023-11-19T11:37:03;14.00;99.90
40253;DHT22;25972;51.854;4.534;2023-11-19T11:39:32;14.00;99.90
40253;DHT22;25972;51.854;4.534;2023-11-19T11:42:31;14.10;99.90
40253;DHT22;25972;51.854;4.534;2023-11-19T11:45:01;14.10;99.90
40253;DHT22;25972;51.854;4.534;2023-11-19T11:50:30;13.90;99.90
40253;DHT22;25972;51.854;4.534;2023-11-19T11:53:13;13.70;99.90
40253;DHT22;25972;51.854;4.534;2023-11-19T11:55:54;13.60;99.90
40253;DHT22;25972;51.854;4.534;2023-11-19T11:58:26;13.60;99.90
40253;DHT22;25972;51.854;4.534;2023-11-19T12:00:52;13.60;99.90
40253;DHT22;25972;51.854;4.534;2023-11-19T12:03:20;13.60;99.90
40253;DHT22;25972;51.854;4.534;2023-11-19T12:05:51;13.60;99.90
40253;DHT22;25972;51.854;4.534;2023-11-19T12:08:19;13.60;99.90
40253;DHT22;25972;51.854;4.534;2023-11-19T12:10:47;13.60;99.90
40253;DHT22;25972;51.854;4.534;2023-11-19T12:13:17;13.60;99.90
40253;DHT22;25972;51.854;4.534;2023-11-19T12:16:10;13.60;99.90
40253;DHT22;25972;51.854;4.534;2023-11-19T12:18:39;13.60;99.90
40253;DHT22;25972;51.854;4.534;2023-11-19T12:21:07;13.60;99.90
40253;DHT22;25972;51.854;4.534;2023-11-19T12:23:35;13.60;99.90
40253;DHT22;25972;51.854;4.534;2023-11-19T12:26:21;13.50;99.90
40253;DHT22;25972;51.854;4.534;2023-11-19T12:28:57;13.50;99.90
40253;DHT22;25972;51.854;4.534;2023-11-19T12:31:24;13.50;99.90
40253;DHT22;25972;51.854;4.534;2023-11-19T12:33:51;13.60;99.90
40253;DHT22;25972;51.854;4.534;2023-11-19T12:36:19;13.70;99.90
40253;DHT22;25972;51.854;4.534;2023-11-19T12:38:46;13.80;99.90
40253;DHT22;25972;51.854;4.534;2023-11-19T12:41:12;13.80;99.90
40253;DHT22;25972;51.854;4.534;2023-11-19T12:43:39;13.80;99.90
40253;DHT22;25972;51.854;4.534;2023-11-19T12:46:17;13.80;99.90
40253;DHT22;25972;51.854;4.534;2023-11-19T12:48:43;13.80;99.90
40253;DHT22;25972;51.854;4.534;2023-11-19T12:51:11;13.70;99.90
40253;DHT22;25972;51.854;4.534;2023-11-19T12:53:49;13.60;99.90
40253;DHT22;25972;51.854;4.534;2023-11-19T12:56:16;13.50;99.90
40253;DHT22;25972;51.854;4.534;2023-11-19T12:58:42;13.50;99.90
40253;DHT22;25972;51.854;4.534;2023-11-19T13:01:09;13.50;99.90
40253;DHT22;25972;51.854;4.534;2023-11-19T13:03:36;13.40;99.90
40253;DHT22;25972;51.854;4.534;2023-11-19T13:06:04;13.40;99.90
40253;DHT22;25972;51.854;4.534;2023-11-19T13:08:36;13.40;99.90
40253;DHT22;25972;51.854;4.534;2023-11-19T13:11:05;13.40;99.90
40253;DHT22;25972;51.854;4.534;2023-11-19T13:13:32;13.50;99.90
40253;DHT22;25972;51.854;4.534;2023-11-19T13:16:02;13.50;99.90
40253;DHT22;25972;51.854;4.534;2023-11-19T13:18:29;13.60;99.90
40253;DHT22;25972;51.854;4.534;2023-11-19T13:20:55;13.60;99.90
40253;DHT22;25972;51.854;4.534;2023-11-19T13:23:23;13.70;99.90
40253;DHT22;25972;51.854;4.534;2023-11-19T13:25:49;13.70;99.90
40253;DHT22;25972;51.854;4.534;2023-11-19T13:28:16;13.70;99.90
40253;DHT22;25972;51.854;4.534;2023-11-19T13:30:42;13.70;99.90
40253;DHT22;25972;51.854;4.534;2023-11-19T13:33:16;13.60;99.90
40253;DHT22;25972;51.854;4.534;2023-11-19T13:35:42;13.50;99.90
40253;DHT22;25972;51.854;4.534;2023-11-19T13:38:08;13.50;99.90
40253;DHT22;25972;51.854;4.534;2023-11-19T13:40:35;13.40;99.90
40253;DHT22;25972;51.854;4.534;2023-11-19T13:43:01;13.40;99.90
40253;DHT22;25972;51.854;4.534;2023-11-19T13:45:27;13.30;99.90
40253;DHT22;25972;51.854;4.534;2023-11-19T13:47:53;13.30;99.90
40253;DHT22;25972;51.854;4.534;2023-11-19T13:50:21;13.30;99.90
40253;DHT22;25972;51.854;4.534;2023-11-19T13:52:48;13.20;99.90
40253;DHT22;25972;51.854;4.534;2023-11-19T13:55:15;13.20;99.90
40253;DHT22;25972;51.854;4.534;2023-11-19T13:57:42;13.10;99.90
40253;DHT22;25972;51.854;4.534;2023-11-19T14:00:10;13.10;99.90
40253;DHT22;25972;51.854;4.534;2023-11-19T14:02:38;13.10;99.90
40253;DHT22;25972;51.854;4.534;2023-11-19T14:05:06;13.10;99.90
40253;DHT22;25972;51.854;4.534;2023-11-19T14:07:33;13.10;99.90
40253;DHT22;25972;51.854;4.534;2023-11-19T14:09:59;13.10;99.90
40253;DHT22;25972;51.854;4.534;2023-11-19T14:12:25;13.10;99.90
40253;DHT22;25972;51.854;4.534;2023-11-19T14:16:59;13.10;99.90
40253;DHT22;25972;51.854;4.534;2023-11-19T14:19:27;13.10;99.90
40253;DHT22;25972;51.854;4.534;2023-11-19T14:21:54;13.20;99.90
40253;DHT22;25972;51.854;4.534;2023-11-19T14:24:20;13.20;99.90
40253;DHT22;25972;51.854;4.534;2023-11-19T14:26:46;13.20;99.90
40253;DHT22;25972;51.854;4.534;2023-11-19T14:31:19;14.90;99.90
40253;DHT22;25972;51.854;4.534;2023-11-19T14:33:45;13.20;99.90
40253;DHT22;25972;51.854;4.534;2023-11-19T14:36:12;13.30;99.90
40253;DHT22;25972;51.854;4.534;2023-11-19T14:38:38;13.30;99.90
40253;DHT22;25972;51.854;4.534;2023-11-19T14:41:05;13.30;99.90
40253;DHT22;25972;51.854;4.534;2023-11-19T14:43:31;13.30;99.90
40253;DHT22;25972;51.854;4.534;2023-11-19T14:45:57;13.40;99.90
40253;DHT22;25972;51.854;4.534;2023-11-19T14:48:25;13.30;99.90
40253;DHT22;25972;51.854;4.534;2023-11-19T14:50:51;13.30;99.90
40253;DHT22;25972;51.854;4.534;2023-11-19T14:53:17;13.30;99.90
40253;DHT22;25972;51.854;4.534;2023-11-19T14:55:44;13.20;99.90
40253;DHT22;25972;51.854;4.534;2023-11-19T14:58:10;13.20;99.90
40253;DHT22;25972;51.854;4.534;2023-11-19T15:00:36;13.10;99.90
40253;DHT22;25972;51.854;4.534;2023-11-19T15:03:02;13.00;99.90
40253;DHT22;25972;51.854;4.534;2023-11-19T15:05:30;13.00;99.90
40253;DHT22;25972;51.854;4.534;2023-11-19T15:07:56;13.00;99.90
40253;DHT22;25972;51.854;4.534;2023-11-19T15:10:22;12.90;99.90
40253;DHT22;25972;51.854;4.534;2023-11-19T15:12:50;12.90;99.90
40253;DHT22;25972;51.854;4.534;2023-11-19T15:15:18;12.90;99.90
40253;DHT22;25972;51.854;4.534;2023-11-19T15:17:45;12.80;99.90
40253;DHT22;25972;51.854;4.534;2023-11-19T15:20:12;12.80;99.90
40253;DHT22;25972;51.854;4.534;2023-11-19T15:22:42;12.80;99.90
40253;DHT22;25972;51.854;4.534;2023-11-19T15:25:08;12.80;99.90
40253;DHT22;25972;51.854;4.534;2023-11-19T15:27:36;12.70;99.90
40253;DHT22;25972;51.854;4.534;2023-11-19T15:30:02;12.80;99.90
40253;DHT22;25972;51.854;4.534;2023-11-19T15:32:28;12.80;99.90
40253;DHT22;25972;51.854;4.534;2023-11-19T15:34:57;12.80;99.90
40253;DHT22;25972;51.854;4.534;2023-11-19T15:37:23;12.80;99.90
40253;DHT22;25972;51.854;4.534;2023-11-19T15:39:50;12.70;99.90